Richardson's Hourly Summary for Saturday, March 18, 2017
Hour Temp
(f)
RH
(%)
Solar Rad.
(MJ/m2)
Rainfall
(in)
Wind
(mph)
3/18/2017 12:00 AM 71 64 0 0 2.85
3/18/2017 1:00 AM 70 66 0 0 6.82
3/18/2017 2:00 AM 69 68 0 0 7.84
3/18/2017 3:00 AM 67 75 0 0 6.26
3/18/2017 4:00 AM 66 80 0 0 4.64
3/18/2017 5:00 AM 65 84 0 0 4.48
3/18/2017 6:00 AM 64 87 0 0 4.22
3/18/2017 7:00 AM 64 89 0 0 4
3/18/2017 8:00 AM 64 89 0.01 0 4.87
3/18/2017 9:00 AM 64 88 0.14 0 5.21
3/18/2017 10:00 AM 65 84 0.37 0 4.18
3/18/2017 11:00 AM 67 76 0.85 0 4.13
3/18/2017 12:00 PM 71 65 2.11 0 2.61
3/18/2017 1:00 PM 74 60 2.53 0 2.88
3/18/2017 2:00 PM 75 61 2.31 0 4.21
3/18/2017 3:00 PM 77 58 2.79 0 4.36
3/18/2017 4:00 PM 78 54 2.41 0 4.52
3/18/2017 5:00 PM 80 52 1.81 0 5.41
3/18/2017 6:00 PM 79 53 1.21 0 6.26
3/18/2017 7:00 PM 78 54 0.39 0 5.75
3/18/2017 8:00 PM 76 57 0.04 0 4.71
3/18/2017 9:00 PM 73 64 0 0 3.16
3/18/2017 10:00 PM 71 67 0 0 1.69
3/18/2017 11:00 PM 69 69 0 0 0.4
Data Summary 70 69 16.97 0.00 4.39